sensor_id;sensor_type;location;lat;lon;timestamp;temperature;humidity
77052;SHT30;65980;44.898;8.602;2023-05-10T00:02:16;16.72;83.71
77052;SHT30;65980;44.898;8.602;2023-05-10T00:05:20;16.56;84.16
77052;SHT30;65980;44.898;8.602;2023-05-10T00:08:25;16.38;85.52
77052;SHT30;65980;44.898;8.602;2023-05-10T00:11:29;16.49;85.69
77052;SHT30;65980;44.898;8.602;2023-05-10T00:14:33;16.55;85.40
77052;SHT30;65980;44.898;8.602;2023-05-10T00:17:37;16.69;84.86
77052;SHT30;65980;44.898;8.602;2023-05-10T00:20:40;16.38;85.32
77052;SHT30;65980;44.898;8.602;2023-05-10T00:23:45;16.51;84.55
77052;SHT30;65980;44.898;8.602;2023-05-10T00:26:49;16.51;84.86
77052;SHT30;65980;44.898;8.602;2023-05-10T00:29:53;16.59;84.32
77052;SHT30;65980;44.898;8.602;2023-05-10T00:32:56;16.61;83.94
77052;SHT30;65980;44.898;8.602;2023-05-10T00:36:00;16.56;83.79
77052;SHT30;65980;44.898;8.602;2023-05-10T00:39:05;16.41;84.15
77052;SHT30;65980;44.898;8.602;2023-05-10T00:42:10;16.41;84.45
77052;SHT30;65980;44.898;8.602;2023-05-10T00:45:15;16.28;85.71
77052;SHT30;65980;44.898;8.602;2023-05-10T00:48:20;15.87;86.14
77052;SHT30;65980;44.898;8.602;2023-05-10T00:51:24;16.14;85.84
77052;SHT30;65980;44.898;8.602;2023-05-10T00:54:29;16.34;85.14
77052;SHT30;65980;44.898;8.602;2023-05-10T00:57:34;16.41;83.94
77052;SHT30;65980;44.898;8.602;2023-05-10T01:00:37;16.52;83.71
77052;SHT30;65980;44.898;8.602;2023-05-10T01:03:41;16.56;84.01
77052;SHT30;65980;44.898;8.602;2023-05-10T01:06:46;16.56;83.43
77052;SHT30;65980;44.898;8.602;2023-05-10T01:09:51;16.56;82.84
77052;SHT30;65980;44.898;8.602;2023-05-10T01:12:54;16.51;83.11
77052;SHT30;65980;44.898;8.602;2023-05-10T01:15:59;16.25;83.61
77052;SHT30;65980;44.898;8.602;2023-05-10T01:19:06;16.25;83.96
77052;SHT30;65980;44.898;8.602;2023-05-10T01:41:19;16.24;84.65
77052;SHT30;65980;44.898;8.602;2023-05-10T01:47:36;16.14;84.81
77052;SHT30;65980;44.898;8.602;2023-05-10T01:50:44;16.24;85.40
77052;SHT30;65980;44.898;8.602;2023-05-10T01:53:49;16.40;84.82
77052;SHT30;65980;44.898;8.602;2023-05-10T01:56:59;16.20;85.15
77052;SHT30;65980;44.898;8.602;2023-05-10T02:00:06;16.20;84.54
77052;SHT30;65980;44.898;8.602;2023-05-10T02:03:18;16.29;84.55
77052;SHT30;65980;44.898;8.602;2023-05-10T02:06:24;16.27;83.93
77052;SHT30;65980;44.898;8.602;2023-05-10T02:09:30;15.96;85.19
77052;SHT30;65980;44.898;8.602;2023-05-10T02:12:35;15.99;85.10
77052;SHT30;65980;44.898;8.602;2023-05-10T02:15:39;16.01;84.87
77052;SHT30;65980;44.898;8.602;2023-05-10T02:18:47;16.18;83.57
77052;SHT30;65980;44.898;8.602;2023-05-10T02:21:51;15.97;84.70
77052;SHT30;65980;44.898;8.602;2023-05-10T02:24:55;15.94;84.48
77052;SHT30;65980;44.898;8.602;2023-05-10T02:28:01;15.97;85.18
77052;SHT30;65980;44.898;8.602;2023-05-10T02:31:06;16.11;84.98
77052;SHT30;65980;44.898;8.602;2023-05-10T02:34:11;16.04;85.83
77052;SHT30;65980;44.898;8.602;2023-05-10T02:37:15;16.20;85.54
77052;SHT30;65980;44.898;8.602;2023-05-10T02:40:21;16.17;85.83
77052;SHT30;65980;44.898;8.602;2023-05-10T02:43:28;15.93;86.88
77052;SHT30;65980;44.898;8.602;2023-05-10T02:46:33;15.94;86.67
77052;SHT30;65980;44.898;8.602;2023-05-10T02:49:40;15.97;87.29
77052;SHT30;65980;44.898;8.602;2023-05-10T02:52:46;16.06;86.71
77052;SHT30;65980;44.898;8.602;2023-05-10T02:55:52;16.11;85.87
77052;SHT30;65980;44.898;8.602;2023-05-10T02:58:59;15.94;87.33
77052;SHT30;65980;44.898;8.602;2023-05-10T03:02:05;15.97;86.89
77052;SHT30;65980;44.898;8.602;2023-05-10T03:05:10;15.80;87.36
77052;SHT30;65980;44.898;8.602;2023-05-10T03:08:13;15.65;87.51
77052;SHT30;65980;44.898;8.602;2023-05-10T03:17:51;15.65;87.31
77052;SHT30;65980;44.898;8.602;2023-05-10T03:21:02;15.45;87.89
77052;SHT30;65980;44.898;8.602;2023-05-10T03:24:09;15.74;86.97
77052;SHT30;65980;44.898;8.602;2023-05-10T03:27:15;15.46;88.31
77052;SHT30;65980;44.898;8.602;2023-05-10T03:30:20;15.38;88.59
77052;SHT30;65980;44.898;8.602;2023-05-10T03:33:26;15.51;87.51
77052;SHT30;65980;44.898;8.602;2023-05-10T03:36:30;15.39;87.95
77052;SHT30;65980;44.898;8.602;2023-05-10T03:39:35;15.46;87.49
77052;SHT30;65980;44.898;8.602;2023-05-10T03:42:42;15.24;88.08
77052;SHT30;65980;44.898;8.602;2023-05-10T03:45:46;15.27;87.28
77052;SHT30;65980;44.898;8.602;2023-05-10T03:48:51;15.07;88.00
77052;SHT30;65980;44.898;8.602;2023-05-10T03:51:55;15.06;88.11
77052;SHT30;65980;44.898;8.602;2023-05-10T03:55:00;15.04;87.64
77052;SHT30;65980;44.898;8.602;2023-05-10T03:58:06;14.84;88.29
77052;SHT30;65980;44.898;8.602;2023-05-10T04:01:13;14.91;87.53
77052;SHT30;65980;44.898;8.602;2023-05-10T04:04:17;14.59;88.67
77052;SHT30;65980;44.898;8.602;2023-05-10T04:07:22;14.59;88.88
77052;SHT30;65980;44.898;8.602;2023-05-10T04:10:25;14.46;89.40
77052;SHT30;65980;44.898;8.602;2023-05-10T04:13:29;14.46;89.80
77052;SHT30;65980;44.898;8.602;2023-05-10T04:16:33;14.39;89.73
77052;SHT30;65980;44.898;8.602;2023-05-10T04:19:37;14.31;89.63
77052;SHT30;65980;44.898;8.602;2023-05-10T04:22:41;14.14;90.48
77052;SHT30;65980;44.898;8.602;2023-05-10T04:25:45;14.13;91.10
77052;SHT30;65980;44.898;8.602;2023-05-10T04:28:49;14.31;90.35
77052;SHT30;65980;44.898;8.602;2023-05-10T04:31:53;14.32;89.90
77052;SHT30;65980;44.898;8.602;2023-05-10T04:34:58;14.21;90.17
77052;SHT30;65980;44.898;8.602;2023-05-10T04:38:02;14.35;89.68
77052;SHT30;65980;44.898;8.602;2023-05-10T04:41:07;14.11;89.93
77052;SHT30;65980;44.898;8.602;2023-05-10T04:44:11;14.20;89.63
77052;SHT30;65980;44.898;8.602;2023-05-10T04:47:15;14.14;89.09
77052;SHT30;65980;44.898;8.602;2023-05-10T04:50:19;14.10;88.06
77052;SHT30;65980;44.898;8.602;2023-05-10T04:53:24;14.22;87.55
77052;SHT30;65980;44.898;8.602;2023-05-10T04:56:28;14.00;87.61
77052;SHT30;65980;44.898;8.602;2023-05-10T04:59:32;14.09;87.43
77052;SHT30;65980;44.898;8.602;2023-05-10T05:02:37;13.99;87.37
77052;SHT30;65980;44.898;8.602;2023-05-10T05:05:41;13.87;88.14
77052;SHT30;65980;44.898;8.602;2023-05-10T05:08:45;14.06;87.58
77052;SHT30;65980;44.898;8.602;2023-05-10T05:11:50;14.06;87.71
77052;SHT30;65980;44.898;8.602;2023-05-10T05:14:54;14.14;87.40
77052;SHT30;65980;44.898;8.602;2023-05-10T05:17:58;14.13;87.09
77052;SHT30;65980;44.898;8.602;2023-05-10T05:21:02;14.18;87.21
77052;SHT30;65980;44.898;8.602;2023-05-10T05:24:06;13.97;87.56
77052;SHT30;65980;44.898;8.602;2023-05-10T05:27:11;14.07;88.25
77052;SHT30;65980;44.898;8.602;2023-05-10T05:30:14;13.93;87.92
77052;SHT30;65980;44.898;8.602;2023-05-10T05:33:19;14.13;88.39
77052;SHT30;65980;44.898;8.602;2023-05-10T05:36:23;13.91;88.15
77052;SHT30;65980;44.898;8.602;2023-05-10T05:39:30;14.01;87.36
77052;SHT30;65980;44.898;8.602;2023-05-10T05:42:34;14.06;87.37
77052;SHT30;65980;44.898;8.602;2023-05-10T05:45:47;14.06;86.76
77052;SHT30;65980;44.898;8.602;2023-05-10T05:52:39;14.21;87.42
77052;SHT30;65980;44.898;8.602;2023-05-10T05:55:54;14.03;87.84
77052;SHT30;65980;44.898;8.602;2023-05-10T05:58:59;14.27;86.81
77052;SHT30;65980;44.898;8.602;2023-05-10T06:02:04;14.20;87.02
77052;SHT30;65980;44.898;8.602;2023-05-10T06:05:11;14.29;86.58
77052;SHT30;65980;44.898;8.602;2023-05-10T06:08:24;14.42;86.54
77052;SHT30;65980;44.898;8.602;2023-05-10T06:11:29;14.21;87.12
77052;SHT30;65980;44.898;8.602;2023-05-10T06:14:35;14.34;86.86
77052;SHT30;65980;44.898;8.602;2023-05-10T06:17:39;14.04;86.69
77052;SHT30;65980;44.898;8.602;2023-05-10T06:20:43;13.91;86.85
77052;SHT30;65980;44.898;8.602;2023-05-10T06:24:01;14.01;86.29
77052;SHT30;65980;44.898;8.602;2023-05-10T06:27:11;14.01;86.27
77052;SHT30;65980;44.898;8.602;2023-05-10T06:30:18;13.99;86.29
77052;SHT30;65980;44.898;8.602;2023-05-10T06:33:22;14.24;85.40
77052;SHT30;65980;44.898;8.602;2023-05-10T06:36:26;14.18;86.29
77052;SHT30;65980;44.898;8.602;2023-05-10T06:39:30;14.24;85.13
77052;SHT30;65980;44.898;8.602;2023-05-10T06:42:34;14.10;85.37
77052;SHT30;65980;44.898;8.602;2023-05-10T06:45:43;13.79;85.96
77052;SHT30;65980;44.898;8.602;2023-05-10T06:48:48;14.14;85.33
77052;SHT30;65980;44.898;8.602;2023-05-10T06:51:51;14.27;84.66
77052;SHT30;65980;44.898;8.602;2023-05-10T06:54:55;14.10;86.24
77052;SHT30;65980;44.898;8.602;2023-05-10T06:58:01;13.84;85.67
77052;SHT30;65980;44.898;8.602;2023-05-10T07:01:06;14.24;84.81
77052;SHT30;65980;44.898;8.602;2023-05-10T07:04:10;13.96;85.69
77052;SHT30;65980;44.898;8.602;2023-05-10T07:07:14;14.27;84.37
77052;SHT30;65980;44.898;8.602;2023-05-10T07:10:18;14.39;83.97
77052;SHT30;65980;44.898;8.602;2023-05-10T07:13:22;13.79;85.44
77052;SHT30;65980;44.898;8.602;2023-05-10T07:16:26;14.42;84.83
77052;SHT30;65980;44.898;8.602;2023-05-10T07:19:31;14.32;84.40
77052;SHT30;65980;44.898;8.602;2023-05-10T07:22:41;14.11;84.28
77052;SHT30;65980;44.898;8.602;2023-05-10T07:26:15;14.32;83.52
77052;SHT30;65980;44.898;8.602;2023-05-10T07:29:23;14.29;83.17
77052;SHT30;65980;44.898;8.602;2023-05-10T07:32:28;14.39;83.40
77052;SHT30;65980;44.898;8.602;2023-05-10T07:35:33;14.77;84.10
77052;SHT30;65980;44.898;8.602;2023-05-10T07:38:43;14.41;82.60
77052;SHT30;65980;44.898;8.602;2023-05-10T07:41:47;14.86;82.51
77052;SHT30;65980;44.898;8.602;2023-05-10T07:44:51;15.20;81.77
77052;SHT30;65980;44.898;8.602;2023-05-10T07:47:55;15.07;81.46
77052;SHT30;65980;44.898;8.602;2023-05-10T07:51:01;15.24;81.08
77052;SHT30;65980;44.898;8.602;2023-05-10T07:54:11;15.16;80.98
77052;SHT30;65980;44.898;8.602;2023-05-10T07:57:18;15.62;81.28
77052;SHT30;65980;44.898;8.602;2023-05-10T08:00:22;15.79;80.32
77052;SHT30;65980;44.898;8.602;2023-05-10T08:19:51;16.47;75.84
77052;SHT30;65980;44.898;8.602;2023-05-10T08:23:13;16.35;75.13
77052;SHT30;65980;44.898;8.602;2023-05-10T08:26:25;16.41;74.72
77052;SHT30;65980;44.898;8.602;2023-05-10T08:29:38;16.61;74.22
77052;SHT30;65980;44.898;8.602;2023-05-10T08:32:49;16.11;75.21
77052;SHT30;65980;44.898;8.602;2023-05-10T08:36:03;16.38;75.69
77052;SHT30;65980;44.898;8.602;2023-05-10T08:39:35;16.72;74.46
77052;SHT30;65980;44.898;8.602;2023-05-10T08:42:45;16.48;74.20
77052;SHT30;65980;44.898;8.602;2023-05-10T08:45:56;16.63;73.28
77052;SHT30;65980;44.898;8.602;2023-05-10T08:49:03;16.22;75.18
77052;SHT30;65980;44.898;8.602;2023-05-10T08:52:13;16.03;75.49
77052;SHT30;65980;44.898;8.602;2023-05-10T08:55:44;16.36;77.90
77052;SHT30;65980;44.898;8.602;2023-05-10T08:59:15;16.55;76.27
77052;SHT30;65980;44.898;8.602;2023-05-10T09:02:35;16.22;75.47
77052;SHT30;65980;44.898;8.602;2023-05-10T09:09:35;16.42;75.55
77052;SHT30;65980;44.898;8.602;2023-05-10T09:38:27;18.37;71.26
77052;SHT30;65980;44.898;8.602;2023-05-10T09:41:31;18.48;67.44
77052;SHT30;65980;44.898;8.602;2023-05-10T09:44:37;18.41;69.00
77052;SHT30;65980;44.898;8.602;2023-05-10T09:47:46;18.92;65.32
77052;SHT30;65980;44.898;8.602;2023-05-10T09:50:56;19.02;64.00
77052;SHT30;65980;44.898;8.602;2023-05-10T09:54:10;19.55;61.52
77052;SHT30;65980;44.898;8.602;2023-05-10T09:57:21;20.83;57.45
77052;SHT30;65980;44.898;8.602;2023-05-10T10:00:25;22.61;52.13
77052;SHT30;65980;44.898;8.602;2023-05-10T10:03:30;23.48;50.57
77052;SHT30;65980;44.898;8.602;2023-05-10T10:06:37;24.16;49.54
77052;SHT30;65980;44.898;8.602;2023-05-10T10:09:42;23.96;50.94
77052;SHT30;65980;44.898;8.602;2023-05-10T10:12:49;25.55;46.56
77052;SHT30;65980;44.898;8.602;2023-05-10T10:15:53;26.27;44.88
77052;SHT30;65980;44.898;8.602;2023-05-10T10:19:05;24.63;49.38
77052;SHT30;65980;44.898;8.602;2023-05-10T10:22:10;24.17;49.85
77052;SHT30;65980;44.898;8.602;2023-05-10T10:25:16;24.09;48.93
77052;SHT30;65980;44.898;8.602;2023-05-10T10:28:26;26.27;44.69
77052;SHT30;65980;44.898;8.602;2023-05-10T10:35:16;23.47;49.08
77052;SHT30;65980;44.898;8.602;2023-05-10T10:38:23;24.34;50.33
77052;SHT30;65980;44.898;8.602;2023-05-10T10:41:34;23.44;51.15
77052;SHT30;65980;44.898;8.602;2023-05-10T10:44:39;22.03;54.51
77052;SHT30;65980;44.898;8.602;2023-05-10T10:54:51;20.69;57.79
77052;SHT30;65980;44.898;8.602;2023-05-10T10:58:01;20.71;58.49
77052;SHT30;65980;44.898;8.602;2023-05-10T11:01:11;20.01;60.73
77052;SHT30;65980;44.898;8.602;2023-05-10T11:04:16;19.96;59.77
77052;SHT30;65980;44.898;8.602;2023-05-10T11:07:21;19.94;60.41
77052;SHT30;65980;44.898;8.602;2023-05-10T11:10:26;19.90;61.10
77052;SHT30;65980;44.898;8.602;2023-05-10T11:16:42;19.69;62.35
77052;SHT30;65980;44.898;8.602;2023-05-10T11:23:13;19.85;61.74
77052;SHT30;65980;44.898;8.602;2023-05-10T11:26:22;19.98;60.71
77052;SHT30;65980;44.898;8.602;2023-05-10T11:29:29;20.28;60.56
77052;SHT30;65980;44.898;8.602;2023-05-10T11:32:46;20.27;59.53
77052;SHT30;65980;44.898;8.602;2023-05-10T11:36:06;20.80;57.42
77052;SHT30;65980;44.898;8.602;2023-05-10T11:39:31;21.65;55.56
77052;SHT30;65980;44.898;8.602;2023-05-10T11:42:44;22.30;54.70
77052;SHT30;65980;44.898;8.602;2023-05-10T11:45:57;21.71;55.14
77052;SHT30;65980;44.898;8.602;2023-05-10T11:49:02;21.45;57.67
77052;SHT30;65980;44.898;8.602;2023-05-10T11:52:13;20.85;57.83
77052;SHT30;65980;44.898;8.602;2023-05-10T11:55:21;20.32;59.85
77052;SHT30;65980;44.898;8.602;2023-05-10T11:58:38;19.06;61.85
77052;SHT30;65980;44.898;8.602;2023-05-10T12:01:51;19.52;62.39
77052;SHT30;65980;44.898;8.602;2023-05-10T12:04:55;19.47;62.23
77052;SHT30;65980;44.898;8.602;2023-05-10T12:08:11;19.51;62.88
77052;SHT30;65980;44.898;8.602;2023-05-10T12:11:25;19.58;61.99
77052;SHT30;65980;44.898;8.602;2023-05-10T12:14:40;19.48;61.83
77052;SHT30;65980;44.898;8.602;2023-05-10T12:17:44;19.94;61.57
77052;SHT30;65980;44.898;8.602;2023-05-10T12:20:53;19.70;61.33
77052;SHT30;65980;44.898;8.602;2023-05-10T12:23:59;19.31;62.53
77052;SHT30;65980;44.898;8.602;2023-05-10T12:27:05;19.57;61.72
77052;SHT30;65980;44.898;8.602;2023-05-10T12:30:12;19.51;62.73
77052;SHT30;65980;44.898;8.602;2023-05-10T12:33:19;19.73;59.36
77052;SHT30;65980;44.898;8.602;2023-05-10T12:36:30;19.54;59.55
77052;SHT30;65980;44.898;8.602;2023-05-10T12:39:43;19.57;61.09
77052;SHT30;65980;44.898;8.602;2023-05-10T12:42:53;20.12;60.06
77052;SHT30;65980;44.898;8.602;2023-05-10T12:46:09;20.04;58.57
77052;SHT30;65980;44.898;8.602;2023-05-10T12:49:16;19.63;59.15
77052;SHT30;65980;44.898;8.602;2023-05-10T12:52:24;19.65;59.16
77052;SHT30;65980;44.898;8.602;2023-05-10T12:55:34;19.90;58.06
77052;SHT30;65980;44.898;8.602;2023-05-10T12:58:38;20.18;58.50
77052;SHT30;65980;44.898;8.602;2023-05-10T13:01:46;20.21;59.41
77052;SHT30;65980;44.898;8.602;2023-05-10T13:04:50;19.89;58.84
77052;SHT30;65980;44.898;8.602;2023-05-10T13:07:55;19.85;60.04
77052;SHT30;65980;44.898;8.602;2023-05-10T13:11:01;19.93;60.18
77052;SHT30;65980;44.898;8.602;2023-05-10T13:14:10;19.55;59.60
77052;SHT30;65980;44.898;8.602;2023-05-10T13:17:35;20.04;58.85
77052;SHT30;65980;44.898;8.602;2023-05-10T13:20:46;20.28;58.61
77052;SHT30;65980;44.898;8.602;2023-05-10T13:23:53;19.45;60.82
77052;SHT30;65980;44.898;8.602;2023-05-10T13:26:58;19.58;60.25
77052;SHT30;65980;44.898;8.602;2023-05-10T13:30:09;18.93;61.91
77052;SHT30;65980;44.898;8.602;2023-05-10T13:33:13;19.73;61.58
77052;SHT30;65980;44.898;8.602;2023-05-10T13:36:26;19.52;58.53
77052;SHT30;65980;44.898;8.602;2023-05-10T13:39:31;19.83;59.89
77052;SHT30;65980;44.898;8.602;2023-05-10T13:42:45;20.24;59.71
77052;SHT30;65980;44.898;8.602;2023-05-10T13:45:48;20.30;58.67
77052;SHT30;65980;44.898;8.602;2023-05-10T13:48:54;19.65;59.86
77052;SHT30;65980;44.898;8.602;2023-05-10T13:51:58;20.16;59.40
77052;SHT30;65980;44.898;8.602;2023-05-10T13:58:47;19.66;60.32
77052;SHT30;65980;44.898;8.602;2023-05-10T14:01:51;18.76;61.65
77052;SHT30;65980;44.898;8.602;2023-05-10T14:05:04;18.89;61.27
77052;SHT30;65980;44.898;8.602;2023-05-10T14:08:11;19.07;60.76
77052;SHT30;65980;44.898;8.602;2023-05-10T14:11:38;18.87;60.97
77052;SHT30;65980;44.898;8.602;2023-05-10T14:19:05;19.47;60.50
77052;SHT30;65980;44.898;8.602;2023-05-10T14:22:12;19.47;60.34
77052;SHT30;65980;44.898;8.602;2023-05-10T14:25:19;19.73;60.35
77052;SHT30;65980;44.898;8.602;2023-05-10T14:28:23;19.69;60.13
77052;SHT30;65980;44.898;8.602;2023-05-10T14:31:32;19.66;60.17
77052;SHT30;65980;44.898;8.602;2023-05-10T14:34:37;19.72;58.89
77052;SHT30;65980;44.898;8.602;2023-05-10T14:37:40;19.39;58.76
77052;SHT30;65980;44.898;8.602;2023-05-10T14:40:46;19.30;59.16
77052;SHT30;65980;44.898;8.602;2023-05-10T14:43:50;19.42;59.79
77052;SHT30;65980;44.898;8.602;2023-05-10T14:46:54;19.20;60.59
77052;SHT30;65980;44.898;8.602;2023-05-10T14:49:59;19.38;60.11
77052;SHT30;65980;44.898;8.602;2023-05-10T14:53:04;19.55;60.01
77052;SHT30;65980;44.898;8.602;2023-05-10T14:56:08;19.25;61.70
77052;SHT30;65980;44.898;8.602;2023-05-10T14:59:12;19.00;61.05
77052;SHT30;65980;44.898;8.602;2023-05-10T15:02:16;19.27;60.72
77052;SHT30;65980;44.898;8.602;2023-05-10T15:05:20;19.59;59.34
77052;SHT30;65980;44.898;8.602;2023-05-10T15:08:24;19.63;58.86
77052;SHT30;65980;44.898;8.602;2023-05-10T15:11:30;19.18;59.48
77052;SHT30;65980;44.898;8.602;2023-05-10T15:14:36;19.23;60.29
77052;SHT30;65980;44.898;8.602;2023-05-10T15:17:41;19.18;59.82
77052;SHT30;65980;44.898;8.602;2023-05-10T15:20:44;19.80;59.38
77052;SHT30;65980;44.898;8.602;2023-05-10T15:23:50;19.63;58.48
77052;SHT30;65980;44.898;8.602;2023-05-10T15:26:56;19.72;58.88
77052;SHT30;65980;44.898;8.602;2023-05-10T15:30:04;20.06;59.09
77052;SHT30;65980;44.898;8.602;2023-05-10T15:33:10;19.65;59.65
77052;SHT30;65980;44.898;8.602;2023-05-10T15:36:23;19.87;59.54
77052;SHT30;65980;44.898;8.602;2023-05-10T15:39:32;19.92;60.17
77052;SHT30;65980;44.898;8.602;2023-05-10T15:42:36;19.86;59.81
77052;SHT30;65980;44.898;8.602;2023-05-10T15:45:43;19.80;60.27
77052;SHT30;65980;44.898;8.602;2023-05-10T15:48:48;19.83;60.21
77052;SHT30;65980;44.898;8.602;2023-05-10T15:51:51;19.39;61.23
77052;SHT30;65980;44.898;8.602;2023-05-10T15:54:56;19.66;61.76
77052;SHT30;65980;44.898;8.602;2023-05-10T15:58:07;19.47;60.87
77052;SHT30;65980;44.898;8.602;2023-05-10T16:01:13;19.17;61.25
77052;SHT30;65980;44.898;8.602;2023-05-10T16:04:21;19.21;61.51
77052;SHT30;65980;44.898;8.602;2023-05-10T16:07:32;19.44;61.62
77052;SHT30;65980;44.898;8.602;2023-05-10T16:10:36;19.52;60.26
77052;SHT30;65980;44.898;8.602;2023-05-10T16:13:43;19.58;61.90
77052;SHT30;65980;44.898;8.602;2023-05-10T16:16:48;19.20;61.10
77052;SHT30;65980;44.898;8.602;2023-05-10T16:19:53;19.35;60.00
77052;SHT30;65980;44.898;8.602;2023-05-10T16:23:03;19.52;59.22
77052;SHT30;65980;44.898;8.602;2023-05-10T16:26:09;19.94;56.90
77052;SHT30;65980;44.898;8.602;2023-05-10T16:29:13;19.21;59.31
77052;SHT30;65980;44.898;8.602;2023-05-10T16:32:18;19.06;60.03
77052;SHT30;65980;44.898;8.602;2023-05-10T16:35:22;19.17;60.02
77052;SHT30;65980;44.898;8.602;2023-05-10T16:38:28;18.96;61.01
77052;SHT30;65980;44.898;8.602;2023-05-10T16:41:33;18.99;61.12
77052;SHT30;65980;44.898;8.602;2023-05-10T16:44:37;18.59;60.62
77052;SHT30;65980;44.898;8.602;2023-05-10T16:47:42;19.04;59.48
77052;SHT30;65980;44.898;8.602;2023-05-10T16:50:46;18.68;59.54
77052;SHT30;65980;44.898;8.602;2023-05-10T16:53:50;18.34;60.74
77052;SHT30;65980;44.898;8.602;2023-05-10T16:56:54;18.66;60.39
77052;SHT30;65980;44.898;8.602;2023-05-10T16:59:59;18.82;60.11
77052;SHT30;65980;44.898;8.602;2023-05-10T17:03:02;18.70;60.60
77052;SHT30;65980;44.898;8.602;2023-05-10T17:06:07;18.92;60.34
77052;SHT30;65980;44.898;8.602;2023-05-10T17:09:10;18.47;62.28
77052;SHT30;65980;44.898;8.602;2023-05-10T17:12:15;18.35;63.27
77052;SHT30;65980;44.898;8.602;2023-05-10T17:15:19;18.44;62.93
77052;SHT30;65980;44.898;8.602;2023-05-10T17:18:23;18.42;62.80
77052;SHT30;65980;44.898;8.602;2023-05-10T17:21:28;17.83;63.31
77052;SHT30;65980;44.898;8.602;2023-05-10T17:24:33;18.10;63.12
77052;SHT30;65980;44.898;8.602;2023-05-10T17:27:37;18.11;63.56
77052;SHT30;65980;44.898;8.602;2023-05-10T17:30:41;17.96;63.39
77052;SHT30;65980;44.898;8.602;2023-05-10T17:33:45;17.93;64.02
77052;SHT30;65980;44.898;8.602;2023-05-10T17:36:49;17.66;65.59
77052;SHT30;65980;44.898;8.602;2023-05-10T17:39:54;17.68;65.37
77052;SHT30;65980;44.898;8.602;2023-05-10T17:42:59;17.65;65.55
77052;SHT30;65980;44.898;8.602;2023-05-10T17:46:04;17.76;66.88
77052;SHT30;65980;44.898;8.602;2023-05-10T17:49:09;17.45;66.18
77052;SHT30;65980;44.898;8.602;2023-05-10T17:52:13;17.32;66.64
77052;SHT30;65980;44.898;8.602;2023-05-10T17:55:18;17.14;67.16
77052;SHT30;65980;44.898;8.602;2023-05-10T17:58:22;17.14;67.36
77052;SHT30;65980;44.898;8.602;2023-05-10T18:01:26;17.31;66.59
77052;SHT30;65980;44.898;8.602;2023-05-10T18:07:40;17.18;67.48
77052;SHT30;65980;44.898;8.602;2023-05-10T18:10:44;17.25;67.10
77052;SHT30;65980;44.898;8.602;2023-05-10T18:13:48;17.06;67.22
77052;SHT30;65980;44.898;8.602;2023-05-10T18:16:55;16.89;67.75
77052;SHT30;65980;44.898;8.602;2023-05-10T18:20:00;16.76;67.92
77052;SHT30;65980;44.898;8.602;2023-05-10T18:23:04;16.84;67.72
77052;SHT30;65980;44.898;8.602;2023-05-10T18:26:09;17.07;67.41
77052;SHT30;65980;44.898;8.602;2023-05-10T18:29:12;17.23;67.66
77052;SHT30;65980;44.898;8.602;2023-05-10T18:32:16;16.84;68.84
77052;SHT30;65980;44.898;8.602;2023-05-10T18:35:21;16.73;69.21
77052;SHT30;65980;44.898;8.602;2023-05-10T18:38:25;16.73;69.43
77052;SHT30;65980;44.898;8.602;2023-05-10T18:41:30;17.04;68.59
77052;SHT30;65980;44.898;8.602;2023-05-10T18:44:34;16.86;69.28
77052;SHT30;65980;44.898;8.602;2023-05-10T18:47:38;17.04;69.01
77052;SHT30;65980;44.898;8.602;2023-05-10T18:50:42;16.80;69.70
77052;SHT30;65980;44.898;8.602;2023-05-10T18:53:47;16.62;70.48
77052;SHT30;65980;44.898;8.602;2023-05-10T18:56:51;16.45;70.50
77052;SHT30;65980;44.898;8.602;2023-05-10T18:59:55;16.49;70.18
77052;SHT30;65980;44.898;8.602;2023-05-10T19:02:59;16.31;70.62
77052;SHT30;65980;44.898;8.602;2023-05-10T19:06:03;16.16;70.95
77052;SHT30;65980;44.898;8.602;2023-05-10T19:09:07;16.22;70.86
77052;SHT30;65980;44.898;8.602;2023-05-10T19:12:13;16.03;70.86
77052;SHT30;65980;44.898;8.602;2023-05-10T19:15:17;16.10;70.66
77052;SHT30;65980;44.898;8.602;2023-05-10T19:18:21;15.93;71.24
77052;SHT30;65980;44.898;8.602;2023-05-10T19:21:25;16.01;71.24
77052;SHT30;65980;44.898;8.602;2023-05-10T19:24:31;16.01;70.99
77052;SHT30;65980;44.898;8.602;2023-05-10T19:27:36;15.96;70.81
77052;SHT30;65980;44.898;8.602;2023-05-10T19:30:41;15.83;71.00
77052;SHT30;65980;44.898;8.602;2023-05-10T19:33:46;16.01;70.54
77052;SHT30;65980;44.898;8.602;2023-05-10T19:36:51;15.70;71.15
77052;SHT30;65980;44.898;8.602;2023-05-10T19:39:56;15.96;70.18
77052;SHT30;65980;44.898;8.602;2023-05-10T19:43:01;16.03;69.36
77052;SHT30;65980;44.898;8.602;2023-05-10T19:46:06;15.91;69.84
77052;SHT30;65980;44.898;8.602;2023-05-10T19:49:12;16.14;68.97
77052;SHT30;65980;44.898;8.602;2023-05-10T19:52:16;16.14;69.08
77052;SHT30;65980;44.898;8.602;2023-05-10T19:55:25;16.22;68.87
77052;SHT30;65980;44.898;8.602;2023-05-10T19:58:31;16.10;69.04
77052;SHT30;65980;44.898;8.602;2023-05-10T20:01:35;16.08;68.84
77052;SHT30;65980;44.898;8.602;2023-05-10T20:04:40;16.03;69.05
77052;SHT30;65980;44.898;8.602;2023-05-10T20:07:45;15.94;69.41
77052;SHT30;65980;44.898;8.602;2023-05-10T20:10:50;15.99;69.77
77052;SHT30;65980;44.898;8.602;2023-05-10T20:13:54;15.79;69.90
77052;SHT30;65980;44.898;8.602;2023-05-10T20:20:29;16.08;69.29
77052;SHT30;65980;44.898;8.602;2023-05-10T20:23:33;16.21;69.06
77052;SHT30;65980;44.898;8.602;2023-05-10T20:26:39;16.01;69.26
77052;SHT30;65980;44.898;8.602;2023-05-10T20:29:43;16.17;70.01
77052;SHT30;65980;44.898;8.602;2023-05-10T20:32:48;16.06;70.85
77052;SHT30;65980;44.898;8.602;2023-05-10T20:35:52;16.17;70.71
77052;SHT30;65980;44.898;8.602;2023-05-10T20:38:58;16.36;69.63
77052;SHT30;65980;44.898;8.602;2023-05-10T20:42:02;16.49;69.30
77052;SHT30;65980;44.898;8.602;2023-05-10T20:45:06;16.45;69.09
77052;SHT30;65980;44.898;8.602;2023-05-10T20:48:11;16.44;69.27
77052;SHT30;65980;44.898;8.602;2023-05-10T20:51:15;16.52;69.27
77052;SHT30;65980;44.898;8.602;2023-05-10T20:54:21;16.32;68.75
77052;SHT30;65980;44.898;8.602;2023-05-10T20:57:28;16.16;69.98
77052;SHT30;65980;44.898;8.602;2023-05-10T21:00:32;15.82;70.65
77052;SHT30;65980;44.898;8.602;2023-05-10T21:03:36;16.16;69.97
77052;SHT30;65980;44.898;8.602;2023-05-10T21:06:40;16.08;69.81
77052;SHT30;65980;44.898;8.602;2023-05-10T21:09:44;15.59;70.80
77052;SHT30;65980;44.898;8.602;2023-05-10T21:12:48;15.74;70.22
77052;SHT30;65980;44.898;8.602;2023-05-10T21:15:52;15.67;70.11
77052;SHT30;65980;44.898;8.602;2023-05-10T21:18:56;15.90;69.29
77052;SHT30;65980;44.898;8.602;2023-05-10T21:22:00;16.08;69.83
77052;SHT30;65980;44.898;8.602;2023-05-10T21:25:04;16.14;69.42
77052;SHT30;65980;44.898;8.602;2023-05-10T21:28:09;15.93;71.38